createdAt,value
2018-11-25T00:00:12.262Z,6.40
2018-11-25T00:02:40.453Z,24.03
2018-11-25T00:05:09.326Z,14.47
2018-11-25T00:07:37.513Z,8.50
2018-11-25T00:10:06.512Z,11.37
2018-11-25T00:12:34.989Z,21.33
2018-11-25T00:15:03.251Z,6.60
2018-11-25T00:17:31.435Z,7.20
2018-11-25T00:19:59.652Z,8.13
2018-11-25T00:22:27.892Z,8.83
2018-11-25T00:24:56.132Z,8.83
2018-11-25T00:27:24.442Z,7.27
2018-11-25T00:29:52.710Z,7.43
2018-11-25T00:32:22.595Z,9.67
2018-11-25T00:34:50.859Z,8.20
2018-11-25T00:37:19.078Z,8.03
2018-11-25T00:39:47.401Z,8.03
2018-11-25T00:42:15.600Z,6.87
2018-11-25T00:44:43.794Z,7.20
2018-11-25T00:47:11.978Z,6.67
2018-11-25T00:49:40.154Z,7.30
2018-11-25T00:52:08.384Z,7.20
2018-11-25T00:54:36.593Z,7.40
2018-11-25T00:57:05.050Z,6.53
2018-11-25T00:59:33.352Z,6.63
2018-11-25T01:02:01.602Z,10.07
2018-11-25T01:04:29.808Z,7.57
2018-11-25T01:06:58.052Z,8.07
2018-11-25T01:09:26.266Z,8.13
2018-11-25T01:11:54.523Z,7.47
2018-11-25T01:14:22.763Z,8.27
2018-11-25T01:16:50.977Z,7.20
2018-11-25T01:19:19.254Z,7.43
2018-11-25T01:21:48.339Z,7.00
2018-11-25T01:24:16.550Z,7.70
2018-11-25T01:26:44.774Z,8.43
2018-11-25T01:29:12.959Z,7.10
2018-11-25T01:31:41.167Z,7.37
2018-11-25T01:34:09.354Z,6.77
2018-11-25T01:36:37.588Z,6.80
2018-11-25T01:39:06.805Z,7.03
2018-11-25T01:41:35.080Z,6.47
2018-11-25T01:44:03.625Z,7.10
2018-11-25T01:46:31.868Z,6.00
2018-11-25T01:49:00.090Z,6.53
2018-11-25T01:51:28.285Z,7.60
2018-11-25T01:53:56.501Z,5.70
2018-11-25T01:56:24.710Z,6.30
2018-11-25T01:58:52.894Z,6.40
2018-11-25T02:01:21.079Z,6.67
2018-11-25T02:03:49.336Z,6.20
2018-11-25T02:06:17.517Z,5.53
2018-11-25T02:08:45.690Z,5.97
2018-11-25T02:11:13.912Z,5.90
2018-11-25T02:13:42.141Z,6.17
2018-11-25T02:16:10.328Z,6.53
2018-11-25T02:18:38.530Z,5.77
2018-11-25T02:21:06.753Z,6.37
2018-11-25T02:23:34.958Z,5.90
2018-11-25T02:26:03.140Z,6.20
2018-11-25T02:28:31.378Z,5.60
2018-11-25T02:30:59.631Z,5.33
2018-11-25T02:33:27.828Z,6.17
2018-11-25T02:35:56.026Z,5.50
2018-11-25T02:38:24.211Z,5.80
2018-11-25T02:40:52.404Z,6.03
2018-11-25T02:43:20.598Z,5.50
2018-11-25T02:45:48.805Z,5.57
2018-11-25T02:48:17.002Z,5.53
2018-11-25T02:50:45.271Z,5.30
2018-11-25T02:53:13.501Z,5.40
2018-11-25T02:55:41.846Z,4.77
2018-11-25T02:58:10.034Z,4.93
2018-11-25T03:00:38.281Z,4.60
2018-11-25T03:03:06.469Z,4.93
2018-11-25T03:05:34.665Z,4.73
2018-11-25T03:08:02.902Z,5.00
2018-11-25T03:10:31.122Z,5.77
2018-11-25T03:12:59.350Z,5.30
2018-11-25T03:15:27.542Z,5.50
2018-11-25T03:17:55.740Z,5.23
2018-11-25T03:20:23.974Z,5.50
2018-11-25T03:22:52.147Z,5.30
2018-11-25T03:25:20.963Z,5.70
2018-11-25T03:27:49.230Z,5.60
2018-11-25T03:30:19.205Z,6.47
2018-11-25T03:32:48.446Z,6.67
2018-11-25T03:35:16.704Z,6.53
2018-11-25T03:37:44.882Z,5.93
2018-11-25T03:40:13.922Z,5.83
2018-11-25T03:42:42.148Z,5.60
2018-11-25T03:45:13.258Z,4.90
2018-11-25T03:47:41.466Z,6.43
2018-11-25T03:50:10.508Z,5.40
2018-11-25T03:52:38.733Z,5.30
2018-11-25T03:55:09.800Z,5.10
2018-11-25T03:57:38.022Z,5.67
2018-11-25T04:00:21.655Z,5.20
2018-11-25T04:02:50.902Z,5.20
2018-11-25T04:05:19.158Z,5.17
2018-11-25T04:07:47.342Z,5.60
2018-11-25T04:10:16.481Z,5.77
2018-11-25T04:12:44.707Z,5.93
2018-11-25T04:15:14.821Z,6.10
2018-11-25T04:17:43.156Z,5.63
2018-11-25T04:20:12.552Z,5.63
2018-11-25T04:22:40.778Z,5.93
2018-11-25T04:25:09.905Z,6.30
2018-11-25T04:27:38.155Z,6.53
2018-11-25T04:30:10.206Z,7.33
2018-11-25T04:32:38.397Z,6.50
2018-11-25T04:35:07.939Z,6.90
2018-11-25T04:37:36.139Z,7.17
2018-11-25T04:40:04.796Z,6.90
2018-11-25T04:42:33.266Z,6.30
2018-11-25T04:45:01.480Z,6.17
2018-11-25T04:47:29.698Z,5.90
2018-11-25T04:49:57.870Z,6.10
2018-11-25T04:52:26.055Z,5.73
2018-11-25T04:54:54.284Z,5.80
2018-11-25T04:57:22.505Z,4.83
2018-11-25T04:59:50.711Z,5.57
2018-11-25T05:02:18.925Z,5.73
2018-11-25T05:04:47.190Z,6.67
2018-11-25T05:07:15.406Z,5.83
2018-11-25T05:09:43.653Z,5.40
2018-11-25T05:12:11.872Z,6.07
2018-11-25T05:14:40.062Z,5.60
2018-11-25T05:17:08.302Z,6.07
2018-11-25T05:19:36.527Z,6.00
2018-11-25T05:22:04.754Z,5.87
2018-11-25T05:24:32.980Z,5.60
2018-11-25T05:27:01.203Z,5.63
2018-11-25T05:29:29.416Z,6.13
2018-11-25T05:31:57.637Z,6.00
2018-11-25T05:34:25.826Z,6.20
2018-11-25T05:36:54.051Z,6.50
2018-11-25T05:39:22.253Z,6.87
2018-11-25T05:41:50.473Z,6.77
2018-11-25T05:44:18.662Z,6.23
2018-11-25T05:46:46.886Z,6.90
2018-11-25T05:49:15.061Z,6.80
2018-11-25T05:51:43.337Z,7.43
2018-11-25T05:54:11.599Z,7.30
2018-11-25T05:56:39.892Z,7.23
2018-11-25T05:59:08.139Z,7.80
2018-11-25T06:01:36.359Z,7.53
2018-11-25T06:04:04.618Z,7.53
2018-11-25T06:06:32.810Z,7.37
2018-11-25T06:09:01.043Z,7.60
2018-11-25T06:11:29.322Z,8.03
2018-11-25T06:13:57.580Z,7.97
2018-11-25T06:16:25.822Z,7.67
2018-11-25T06:18:54.121Z,8.60
2018-11-25T06:21:22.338Z,8.23
2018-11-25T06:23:50.583Z,9.03
2018-11-25T06:26:18.773Z,7.97
2018-11-25T06:28:46.959Z,7.07
2018-11-25T06:31:15.223Z,7.10
2018-11-25T06:33:43.408Z,6.80
2018-11-25T06:36:11.674Z,7.40
2018-11-25T06:38:39.870Z,8.33
2018-11-25T06:41:08.077Z,8.93
2018-11-25T06:43:36.282Z,8.43
2018-11-25T06:46:07.158Z,8.83
2018-11-25T06:48:35.400Z,9.30
2018-11-25T06:51:03.624Z,9.87
2018-11-25T06:53:31.862Z,10.63
2018-11-25T06:56:00.118Z,9.27
2018-11-25T06:58:29.031Z,10.57
2018-11-25T07:00:57.197Z,8.97
2018-11-25T07:03:25.394Z,9.63
2018-11-25T07:05:53.632Z,8.87
2018-11-25T07:08:21.849Z,7.20
2018-11-25T07:10:50.098Z,7.47
2018-11-25T07:13:18.371Z,6.87
2018-11-25T07:15:46.582Z,7.60
2018-11-25T07:18:14.815Z,7.07
2018-11-25T07:20:43.094Z,6.93
2018-11-25T07:23:11.287Z,7.23
2018-11-25T07:25:39.474Z,6.90
2018-11-25T07:28:18.127Z,6.50
2018-11-25T07:30:35.986Z,5.80
2018-11-25T07:33:04.274Z,5.53
2018-11-25T07:35:32.542Z,5.30
2018-11-25T07:38:00.751Z,5.20
2018-11-25T07:40:29.130Z,5.60
2018-11-25T07:42:57.416Z,5.13
2018-11-25T07:45:30.442Z,6.43
2018-11-25T07:47:54.357Z,5.90
2018-11-25T07:50:22.641Z,5.80
2018-11-25T07:52:51.434Z,5.27
2018-11-25T07:55:20.702Z,5.17
2018-11-25T07:57:49.587Z,5.17
2018-11-25T08:00:18.915Z,4.97
2018-11-25T08:02:47.100Z,4.63
2018-11-25T08:05:16.578Z,4.63
2018-11-25T08:07:44.878Z,5.13
2018-11-25T08:10:16.289Z,5.17
2018-11-25T08:12:45.003Z,5.13
2018-11-25T08:15:14.885Z,5.17
2018-11-25T08:17:43.074Z,5.10
2018-11-25T08:20:12.205Z,5.47
2018-11-25T08:22:40.444Z,5.93
2018-11-25T08:25:12.430Z,6.80
2018-11-25T08:27:40.614Z,6.60
2018-11-25T08:30:12.262Z,6.60
2018-11-25T08:32:40.457Z,7.00
2018-11-25T08:35:09.447Z,5.77
2018-11-25T08:37:37.846Z,7.13
2018-11-25T08:40:09.987Z,7.03
2018-11-25T08:42:38.258Z,6.30
2018-11-25T08:45:07.947Z,12.20
2018-11-25T08:47:36.127Z,7.83
2018-11-25T08:50:05.143Z,7.97
2018-11-25T08:52:33.383Z,6.07
2018-11-25T08:55:01.596Z,6.50
2018-11-25T08:57:29.834Z,8.77
2018-11-25T08:59:58.138Z,6.57
2018-11-25T09:02:26.426Z,5.60
2018-11-25T09:04:54.656Z,6.33
2018-11-25T09:07:22.874Z,6.47
2018-11-25T09:09:51.111Z,6.07
2018-11-25T09:12:19.324Z,6.60
2018-11-25T09:14:47.519Z,5.90
2018-11-25T09:17:15.787Z,6.83
2018-11-25T09:19:44.021Z,7.03
2018-11-25T09:22:12.295Z,10.13
2018-11-25T09:24:40.602Z,7.10
2018-11-25T09:27:08.873Z,7.43
2018-11-25T09:29:37.160Z,7.43
2018-11-25T09:32:06.148Z,8.13
2018-11-25T09:34:34.402Z,7.97
2018-11-25T09:37:02.687Z,9.27
2018-11-25T09:39:30.983Z,8.80
2018-11-25T09:41:59.206Z,8.17
2018-11-25T09:44:27.414Z,7.27
2018-11-25T09:46:55.609Z,8.10
2018-11-25T09:49:23.938Z,7.87
2018-11-25T09:51:52.143Z,8.07
2018-11-25T09:54:20.389Z,7.87
2018-11-25T09:56:48.587Z,7.23
2018-11-25T09:59:16.858Z,8.20
2018-11-25T10:01:45.085Z,7.70
2018-11-25T10:04:13.302Z,8.83
2018-11-25T10:06:41.504Z,9.40
2018-11-25T10:09:09.723Z,10.00
2018-11-25T10:11:37.926Z,11.03
2018-11-25T10:14:06.131Z,10.80
2018-11-25T10:16:34.374Z,11.57
2018-11-25T10:19:02.645Z,10.77
2018-11-25T10:21:30.835Z,10.73
2018-11-25T10:23:59.053Z,10.50
2018-11-25T10:26:27.274Z,11.43
2018-11-25T10:28:55.498Z,10.43
2018-11-25T10:31:23.756Z,11.47
2018-11-25T10:33:52.154Z,12.03
2018-11-25T10:36:20.379Z,11.67
2018-11-25T10:38:48.582Z,11.60
2018-11-25T10:41:16.806Z,11.20
2018-11-25T10:43:45.082Z,10.70
2018-11-25T10:46:13.422Z,11.73
2018-11-25T10:48:41.632Z,13.20
2018-11-25T10:51:09.873Z,11.10
2018-11-25T10:53:38.391Z,11.67
2018-11-25T10:56:06.700Z,11.23
2018-11-25T10:58:34.901Z,12.73
2018-11-25T11:01:08.454Z,12.57
2018-11-25T11:03:42.265Z,11.30
2018-11-25T11:06:15.945Z,11.50
2018-11-25T11:08:44.158Z,11.70
2018-11-25T11:11:12.485Z,12.40
2018-11-25T11:13:40.712Z,12.07
2018-11-25T11:16:09.002Z,12.73
2018-11-25T11:18:37.232Z,11.47
2018-11-25T11:21:05.554Z,11.63
2018-11-25T11:23:33.777Z,13.97
2018-11-25T11:26:06.648Z,11.93
2018-11-25T11:28:30.271Z,13.27
2018-11-25T11:30:58.466Z,13.60
2018-11-25T11:33:26.688Z,13.27
2018-11-25T11:35:54.907Z,12.50
2018-11-25T11:38:23.250Z,13.83
2018-11-25T11:40:51.458Z,11.30
2018-11-25T11:43:19.662Z,12.87
2018-11-25T11:45:47.910Z,13.73
2018-11-25T11:48:16.088Z,13.30
2018-11-25T11:50:44.286Z,15.23
2018-11-25T11:53:12.487Z,17.13
2018-11-25T11:55:40.718Z,17.57
2018-11-25T11:58:08.958Z,22.10
2018-11-25T12:00:37.162Z,19.03
2018-11-25T12:03:05.751Z,19.20
2018-11-25T12:05:34.071Z,20.43
2018-11-25T12:08:02.297Z,20.40
2018-11-25T12:10:30.482Z,22.27
2018-11-25T12:12:58.717Z,20.67
2018-11-25T12:15:31.100Z,22.13
2018-11-25T12:17:58.398Z,21.73
2018-11-25T12:20:27.670Z,20.70
2018-11-25T12:22:56.417Z,20.47
2018-11-25T12:25:24.730Z,19.83
2018-11-25T12:27:53.370Z,19.60
2018-11-25T12:30:21.831Z,19.90
2018-11-25T12:32:50.998Z,20.90
2018-11-25T12:35:19.327Z,20.67
2018-11-25T12:37:47.854Z,21.27
2018-11-25T12:40:17.420Z,20.67
2018-11-25T12:42:47.948Z,21.47
2018-11-25T12:45:16.986Z,19.93
2018-11-25T12:47:45.214Z,19.40
2018-11-25T12:50:14.578Z,20.97
2018-11-25T12:52:42.809Z,19.90
2018-11-25T12:55:14.245Z,19.10
2018-11-25T12:57:42.469Z,19.40
2018-11-25T13:00:22.318Z,21.37
2018-11-25T13:02:50.601Z,20.10
2018-11-25T13:05:18.867Z,20.70
2018-11-25T13:07:47.123Z,20.73
2018-11-25T13:10:15.385Z,19.77
2018-11-25T13:12:43.983Z,21.43
2018-11-25T13:15:12.346Z,19.30
2018-11-25T13:17:40.614Z,20.90
2018-11-25T13:20:11.788Z,19.67
2018-11-25T13:22:40.271Z,21.60
2018-11-25T13:25:11.331Z,20.97
2018-11-25T13:27:39.583Z,21.93
2018-11-25T13:30:16.279Z,20.07
2018-11-25T13:32:44.834Z,20.83
2018-11-25T13:35:13.091Z,23.43
2018-11-25T13:37:41.419Z,21.20
2018-11-25T13:40:11.028Z,20.47
2018-11-25T13:42:39.345Z,20.83
2018-11-25T13:45:06.588Z,21.60
2018-11-25T13:47:34.799Z,23.00
2018-11-25T13:50:03.077Z,21.87
2018-11-25T13:52:31.368Z,22.37
2018-11-25T13:54:59.610Z,20.93
2018-11-25T13:57:27.819Z,23.00
2018-11-25T13:59:56.166Z,22.37
2018-11-25T14:02:24.437Z,23.27
2018-11-25T14:04:52.734Z,23.67
2018-11-25T14:07:21.033Z,25.20
2018-11-25T14:09:49.956Z,24.87
2018-11-25T14:12:18.401Z,26.17
2018-11-25T14:14:46.647Z,26.30
2018-11-25T14:17:14.872Z,24.20
2018-11-25T14:19:43.148Z,25.73
2018-11-25T14:22:11.362Z,27.70
2018-11-25T14:24:39.580Z,25.63
2018-11-25T14:27:08.979Z,25.50
2018-11-25T14:29:37.226Z,24.37
2018-11-25T14:32:05.887Z,26.50
2018-11-25T14:34:34.143Z,26.63
2018-11-25T14:37:02.390Z,26.23
2018-11-25T14:39:30.643Z,26.20
2018-11-25T14:41:58.942Z,27.33
2018-11-25T14:44:27.194Z,23.97
2018-11-25T14:46:55.483Z,25.53
2018-11-25T14:49:23.746Z,30.53
2018-11-25T14:51:52.034Z,50.50
2018-11-25T14:54:20.316Z,45.13
2018-11-25T14:56:48.598Z,41.17
2018-11-25T14:59:16.874Z,30.13
2018-11-25T15:01:45.134Z,35.30
2018-11-25T15:04:13.410Z,41.40
2018-11-25T15:06:41.704Z,32.57
2018-11-25T15:09:10.916Z,39.00
2018-11-25T15:11:39.233Z,28.90
2018-11-25T15:14:08.180Z,34.03
2018-11-25T15:16:36.856Z,36.97
2018-11-25T15:19:06.108Z,29.83
2018-11-25T15:21:34.329Z,27.97
2018-11-25T15:24:02.615Z,24.93
2018-11-25T15:26:31.004Z,25.30
2018-11-25T15:28:59.286Z,27.87
2018-11-25T15:31:27.542Z,25.87
2018-11-25T15:33:55.827Z,23.60
2018-11-25T15:36:24.065Z,27.13
2018-11-25T15:38:52.366Z,22.70
2018-11-25T15:41:20.540Z,23.23
2018-11-25T15:43:48.820Z,26.37
2018-11-25T15:46:17.043Z,24.93
2018-11-25T15:48:45.342Z,26.10
2018-11-25T15:51:13.542Z,24.70
2018-11-25T15:53:41.784Z,25.97
2018-11-25T15:56:10.409Z,28.47
2018-11-25T15:58:38.651Z,28.30
2018-11-25T16:01:06.845Z,27.27
2018-11-25T16:03:35.136Z,27.00
2018-11-25T16:06:10.335Z,28.43
2018-11-25T16:08:38.652Z,28.73
2018-11-25T16:11:06.927Z,27.50
2018-11-25T16:13:35.379Z,28.33
2018-11-25T16:16:03.583Z,28.97
2018-11-25T16:18:31.852Z,29.30
2018-11-25T16:21:00.127Z,30.37
2018-11-25T16:23:28.456Z,29.47
2018-11-25T16:25:58.934Z,30.27
2018-11-25T16:28:35.361Z,29.93
2018-11-25T16:31:03.554Z,28.30
2018-11-25T16:33:31.778Z,27.40
2018-11-25T16:36:00.027Z,27.27
2018-11-25T16:38:28.406Z,26.63
2018-11-25T16:40:56.630Z,28.33
2018-11-25T16:43:24.864Z,26.57
2018-11-25T16:45:53.102Z,27.10
2018-11-25T16:48:21.421Z,26.73
2018-11-25T16:50:49.749Z,28.00
2018-11-25T16:53:17.973Z,28.00
2018-11-25T16:55:46.226Z,25.47
2018-11-25T16:58:14.505Z,26.00
2018-11-25T17:00:42.778Z,26.73
2018-11-25T17:03:11.055Z,27.73
2018-11-25T17:05:42.065Z,27.80
2018-11-25T17:08:14.600Z,26.03
2018-11-25T17:10:42.938Z,25.20
2018-11-25T17:13:11.198Z,25.03
2018-11-25T17:15:39.411Z,26.13
2018-11-25T17:18:07.647Z,25.70
2018-11-25T17:20:35.907Z,26.57
2018-11-25T17:23:04.134Z,24.63
2018-11-25T17:25:32.386Z,25.27
2018-11-25T17:28:00.598Z,25.73
2018-11-25T17:30:28.838Z,24.20
2018-11-25T17:32:57.037Z,25.47
2018-11-25T17:35:27.895Z,25.23
2018-11-25T17:37:56.062Z,25.47
2018-11-25T17:40:24.339Z,23.63
2018-11-25T17:42:52.791Z,25.67
2018-11-25T17:45:21.092Z,26.77
2018-11-25T17:47:49.378Z,26.13
2018-11-25T17:50:20.065Z,24.80
2018-11-25T17:52:48.724Z,25.70
2018-11-25T17:55:17.557Z,24.87
2018-11-25T17:57:45.834Z,23.83
2018-11-25T18:00:31.327Z,24.73
2018-11-25T18:02:59.603Z,25.70
2018-11-25T18:05:27.849Z,24.40
2018-11-25T18:07:56.142Z,23.93
2018-11-25T18:10:24.373Z,25.30
2018-11-25T18:12:52.790Z,23.90
2018-11-25T18:15:21.598Z,24.00
2018-11-25T18:17:54.071Z,23.63
2018-11-25T18:20:22.978Z,24.80
2018-11-25T18:22:51.290Z,24.30
2018-11-25T18:25:19.515Z,25.73
2018-11-25T18:27:47.774Z,26.43
2018-11-25T18:30:17.036Z,26.20
2018-11-25T18:32:45.688Z,24.90
2018-11-25T18:35:13.932Z,25.43
2018-11-25T18:37:42.226Z,24.87
2018-11-25T18:40:12.791Z,32.03
2018-11-25T18:42:41.598Z,26.83
2018-11-25T18:45:11.448Z,26.77
2018-11-25T18:47:39.770Z,26.50
2018-11-25T18:50:10.146Z,27.73
2018-11-25T18:52:38.386Z,28.90
2018-11-25T18:55:05.597Z,27.93
2018-11-25T18:57:33.894Z,26.97
2018-11-25T19:00:02.140Z,24.07
2018-11-25T19:02:41.417Z,25.87
2018-11-25T19:05:09.834Z,24.43
2018-11-25T19:07:38.065Z,25.80
2018-11-25T19:10:14.430Z,26.33
2018-11-25T19:12:44.155Z,25.67
2018-11-25T19:15:12.413Z,24.90
2018-11-25T19:17:40.762Z,25.40
2018-11-25T19:20:13.282Z,25.53
2018-11-25T19:22:42.211Z,25.33
2018-11-25T19:25:11.849Z,25.73
2018-11-25T19:27:40.094Z,26.63
2018-11-25T19:30:11.699Z,26.23
2018-11-25T19:32:40.544Z,24.53
2018-11-25T19:35:11.054Z,27.03
2018-11-25T19:37:39.490Z,27.53
2018-11-25T19:40:14.075Z,26.57
2018-11-25T19:42:42.657Z,25.93
2018-11-25T19:45:12.746Z,25.87
2018-11-25T19:47:41.951Z,26.57
2018-11-25T19:50:16.890Z,25.80
2018-11-25T19:52:45.094Z,26.97
2018-11-25T19:55:13.384Z,28.30
2018-11-25T19:57:41.651Z,26.13
2018-11-25T20:00:12.297Z,25.57
2018-11-25T20:02:40.518Z,25.30
2018-11-25T20:05:10.566Z,25.23
2018-11-25T20:07:38.947Z,26.73
2018-11-25T20:10:10.302Z,24.57
2018-11-25T20:12:39.691Z,25.10
2018-11-25T20:15:09.918Z,25.60
2018-11-25T20:17:38.206Z,26.47
2018-11-25T20:20:09.649Z,24.93
2018-11-25T20:22:37.860Z,25.07
2018-11-25T20:25:08.528Z,24.97
2018-11-25T20:27:38.471Z,26.83
2018-11-25T20:30:10.383Z,26.70
2018-11-25T20:32:44.056Z,24.97
2018-11-25T20:35:12.466Z,24.67
2018-11-25T20:37:46.134Z,25.07
2018-11-25T20:40:14.392Z,25.13
2018-11-25T20:42:42.638Z,24.73
2018-11-25T20:45:17.323Z,26.33
2018-11-25T20:47:45.971Z,24.70
2018-11-25T20:50:14.199Z,23.00
2018-11-25T20:52:48.014Z,23.40
2018-11-25T20:55:16.235Z,23.30
2018-11-25T20:57:44.462Z,23.20
2018-11-25T21:00:15.140Z,23.67
2018-11-25T21:02:43.833Z,23.20
2018-11-25T21:05:12.988Z,24.10
2018-11-25T21:07:41.194Z,23.07
2018-11-25T21:10:14.690Z,25.13
2018-11-25T21:12:45.095Z,25.47
2018-11-25T21:15:13.270Z,25.03
2018-11-25T21:17:41.456Z,27.70
2018-11-25T21:20:11.975Z,25.93
2018-11-25T21:22:40.245Z,27.37
2018-11-25T21:25:11.383Z,25.50
2018-11-25T21:27:39.710Z,26.27
2018-11-25T21:30:15.026Z,24.30
2018-11-25T21:32:43.682Z,25.93
2018-11-25T21:35:12.741Z,26.60
2018-11-25T21:37:41.010Z,24.80
2018-11-25T21:40:18.062Z,27.40
2018-11-25T21:42:46.267Z,26.97
2018-11-25T21:45:15.610Z,28.03
2018-11-25T21:47:43.901Z,28.60
2018-11-25T21:50:19.464Z,26.20
2018-11-25T21:52:47.810Z,28.23
2018-11-25T21:55:17.097Z,28.00
2018-11-25T21:57:45.415Z,29.63
2018-11-25T22:00:15.730Z,27.37
2018-11-25T22:02:44.034Z,26.33
2018-11-25T22:05:12.983Z,26.27
2018-11-25T22:07:41.309Z,24.37
2018-11-25T22:10:10.619Z,24.00
2018-11-25T22:12:39.633Z,22.90
2018-11-25T22:15:17.686Z,20.13
2018-11-25T22:17:45.940Z,22.57
2018-11-25T22:20:14.853Z,22.43
2018-11-25T22:22:43.124Z,22.97
2018-11-25T22:25:12.446Z,21.90
2018-11-25T22:27:40.676Z,20.97
2018-11-25T22:30:24.042Z,22.23
2018-11-25T22:32:52.313Z,22.00
2018-11-25T22:35:21.710Z,20.30
2018-11-25T22:37:49.902Z,21.17
2018-11-25T22:40:18.695Z,22.33
2018-11-25T22:42:47.779Z,20.90
2018-11-25T22:45:17.088Z,20.70
2018-11-25T22:47:45.366Z,21.43
2018-11-25T22:50:16.446Z,20.07
2018-11-25T22:52:44.890Z,20.77
2018-11-25T22:55:14.394Z,20.83
2018-11-25T22:57:42.671Z,20.83
2018-11-25T23:00:23.061Z,19.97
2018-11-25T23:02:51.271Z,20.27
2018-11-25T23:05:30.729Z,20.00
2018-11-25T23:07:58.970Z,20.20
2018-11-25T23:10:27.178Z,20.47
2018-11-25T23:12:55.382Z,20.83
2018-11-25T23:15:23.630Z,19.87
2018-11-25T23:17:52.523Z,21.07
2018-11-25T23:20:20.769Z,20.53
2018-11-25T23:22:48.975Z,20.10
2018-11-25T23:25:17.296Z,20.87
2018-11-25T23:27:45.503Z,19.87
2018-11-25T23:30:13.704Z,20.37
2018-11-25T23:32:42.195Z,19.27
2018-11-25T23:35:15.390Z,20.27
2018-11-25T23:37:43.591Z,20.17
2018-11-25T23:40:11.880Z,22.03
2018-11-25T23:42:40.327Z,21.07
2018-11-25T23:45:11.254Z,19.97
2018-11-25T23:47:39.576Z,21.73
2018-11-25T23:50:09.318Z,21.27
2018-11-25T23:52:37.682Z,20.70
2018-11-25T23:55:08.229Z,20.03
2018-11-25T23:57:36.525Z,20.17
